Time;durP1;ratioP1;P1;durP2;ratioP2;P2;SDS_P1;SDS_P2;PMS_P1;PMS_P2;Temp;Humidity;BMP_temperature;BMP_pressure;BME280_temperature;BME280_humidity;BME280_pressure;Samples;Min_cycle;Max_cycle;Signal;HPM_P1;HPM_P2
2022/08/31 00:05:49;;;;;;;4.72;4.32;;;;;;;;;;5035991;28;24422;-46
2022/08/31 00:08:14;;;;;;;4.30;4.00;;;;;;;;;;5037689;28;24431;-46
2022/08/31 00:10:40;;;;;;;4.68;4.28;;;;;;;;;;5033455;28;24434;-47
2022/08/31 00:13:06;;;;;;;4.80;4.40;;;;;;;;;;5037662;28;24474;-46
2022/08/31 00:15:31;;;;;;;5.70;5.30;;;;;;;;;;5040730;28;24519;-46
2022/08/31 00:17:57;;;;;;;5.30;4.90;;;;;;;;;;5043918;28;24634;-46
2022/08/31 00:20:22;;;;;;;5.30;4.90;;;;;;;;;;5029624;28;24435;-46
2022/08/31 00:22:48;;;;;;;5.57;5.07;;;;;;;;;;5044162;28;24531;-46
2022/08/31 00:25:13;;;;;;;5.83;5.33;;;;;;;;;;5040860;28;24422;-47
2022/08/31 00:27:38;;;;;;;4.93;4.53;;;;;;;;;;5032618;28;24511;-47
2022/08/31 00:30:06;;;;;;;5.20;4.80;;;;;;;;;;5041501;28;24486;-45
2022/08/31 00:32:31;;;;;;;5.20;4.80;;;;;;;;;;5033550;28;24782;-45
2022/08/31 00:34:56;;;;;;;5.57;5.07;;;;;;;;;;5042755;28;24439;-47
2022/08/31 00:37:22;;;;;;;5.25;4.80;;;;;;;;;;5039587;28;24945;-46
2022/08/31 00:39:47;;;;;;;4.80;4.40;;;;;;;;;;5031696;28;25035;-46
2022/08/31 00:42:12;;;;;;;5.40;5.00;;;;;;;;;;5035715;28;24455;-46
2022/08/31 00:44:38;;;;;;;5.70;5.30;;;;;;;;;;5034908;28;24416;-46
2022/08/31 00:47:04;;;;;;;5.13;4.72;;;;;;;;;;5039041;28;24416;-46
2022/08/31 00:49:31;;;;;;;5.17;4.77;;;;;;;;;;5040469;28;24446;-46
2022/08/31 00:52:02;;;;;;;5.00;4.60;;;;;;;;;;5035049;28;24450;-46
2022/08/31 00:54:30;;;;;;;5.80;5.40;;;;;;;;;;5042910;28;24859;-46
2022/08/31 00:56:55;;;;;;;5.80;5.30;;;;;;;;;;5039455;28;24424;-46
2022/08/31 00:59:21;;;;;;;5.60;5.10;;;;;;;;;;5028364;28;24841;-46
2022/08/31 01:01:46;;;;;;;5.10;4.70;;;;;;;;;;5031025;28;24478;-46
2022/08/31 01:04:11;;;;;;;5.30;4.80;;;;;;;;;;5045982;28;24399;-46
2022/08/31 01:06:37;;;;;;;5.40;5.00;;;;;;;;;;5034442;28;24431;-47
2022/08/31 01:09:04;;;;;;;5.05;4.55;;;;;;;;;;5042480;28;24445;-46
2022/08/31 01:11:30;;;;;;;5.75;5.20;;;;;;;;;;5028895;28;24510;-46
2022/08/31 01:13:55;;;;;;;5.60;5.10;;;;;;;;;;5043946;28;24507;-47
2022/08/31 01:16:23;;;;;;;5.60;5.10;;;;;;;;;;5034579;28;25034;-46
2022/08/31 01:18:50;;;;;;;4.93;4.53;;;;;;;;;;5036172;28;25180;-46
2022/08/31 01:21:18;;;;;;;5.00;4.60;;;;;;;;;;5036449;28;25044;-45
2022/08/31 01:23:43;;;;;;;5.00;4.60;;;;;;;;;;5028694;28;24791;-46
2022/08/31 01:26:10;;;;;;;5.37;4.97;;;;;;;;;;5030310;28;25017;-46
2022/08/31 01:28:35;;;;;;;5.60;5.20;;;;;;;;;;5031498;28;24416;-45
2022/08/31 01:31:04;;;;;;;5.20;4.80;;;;;;;;;;5028448;28;24455;-47
2022/08/31 01:33:29;;;;;;;5.55;5.15;;;;;;;;;;5028787;28;25030;-47
2022/08/31 01:35:55;;;;;;;5.10;4.70;;;;;;;;;;5036983;28;24420;-46
2022/08/31 01:38:20;;;;;;;5.00;4.50;;;;;;;;;;5030190;28;24485;-46
2022/08/31 01:40:51;;;;;;;4.87;4.47;;;;;;;;;;5036990;28;24519;-47
2022/08/31 01:43:16;;;;;;;4.80;4.40;;;;;;;;;;5032485;28;24450;-46
2022/08/31 01:45:41;;;;;;;5.20;4.80;;;;;;;;;;5035499;28;24435;-47
2022/08/31 01:48:07;;;;;;;5.45;5.05;;;;;;;;;;5030291;28;24578;-46
2022/08/31 01:50:32;;;;;;;5.78;5.28;;;;;;;;;;5039641;28;24427;-46
2022/08/31 01:52:57;;;;;;;5.30;4.90;;;;;;;;;;5040037;28;24491;-45
2022/08/31 01:55:22;;;;;;;4.87;4.37;;;;;;;;;;5041161;28;24450;-46
2022/08/31 01:57:48;;;;;;;4.90;4.50;;;;;;;;;;5036156;28;24411;-46
2022/08/31 02:00:13;;;;;;;5.20;4.80;;;;;;;;;;5036702;28;24426;-46
2022/08/31 02:02:38;;;;;;;4.60;4.20;;;;;;;;;;5034652;28;24534;-46
2022/08/31 02:05:04;;;;;;;4.40;4.00;;;;;;;;;;5030724;28;24435;-46
2022/08/31 02:07:29;;;;;;;4.20;3.90;;;;;;;;;;5039699;28;24818;-47
2022/08/31 02:09:54;;;;;;;4.70;4.30;;;;;;;;;;5031956;28;24505;-46
2022/08/31 02:12:19;;;;;;;5.20;4.70;;;;;;;;;;5026411;28;24419;-46
2022/08/31 02:14:44;;;;;;;4.82;4.43;;;;;;;;;;5035590;28;24779;-46
2022/08/31 02:17:10;;;;;;;5.00;4.60;;;;;;;;;;5041499;28;24522;-46
2022/08/31 02:19:35;;;;;;;4.90;4.50;;;;;;;;;;5036187;28;24466;-47
2022/08/31 02:22:00;;;;;;;4.68;4.38;;;;;;;;;;5027822;28;25264;-47
2022/08/31 02:24:25;;;;;;;5.10;4.70;;;;;;;;;;5036803;28;24522;-47
2022/08/31 02:26:50;;;;;;;5.20;4.80;;;;;;;;;;5029125;28;24428;-46
2022/08/31 02:29:16;;;;;;;4.80;4.30;;;;;;;;;;5032745;28;24949;-47
2022/08/31 02:31:42;;;;;;;5.30;4.80;;;;;;;;;;5037960;28;25054;-46
2022/08/31 02:34:07;;;;;;;5.00;4.60;;;;;;;;;;5037902;28;24444;-46
2022/08/31 02:36:32;;;;;;;5.00;4.60;;;;;;;;;;5037462;28;24423;-47
2022/08/31 02:38:57;;;;;;;4.97;4.57;;;;;;;;;;5037572;28;24439;-46
2022/08/31 02:41:22;;;;;;;4.70;4.40;;;;;;;;;;5037645;28;24412;-46
2022/08/31 02:43:47;;;;;;;5.05;4.65;;;;;;;;;;5043534;28;24785;-46
2022/08/31 02:46:12;;;;;;;4.80;4.40;;;;;;;;;;5041992;28;24999;-46
2022/08/31 02:48:38;;;;;;;5.50;5.00;;;;;;;;;;5046608;28;24519;-46
2022/08/31 02:51:05;;;;;;;5.60;5.15;;;;;;;;;;5043895;28;24472;-46
2022/08/31 02:53:30;;;;;;;5.13;4.70;;;;;;;;;;5036930;28;24422;-46
2022/08/31 02:55:55;;;;;;;5.60;5.10;;;;;;;;;;5044077;28;25007;-46
2022/08/31 02:58:20;;;;;;;5.70;5.20;;;;;;;;;;5042347;28;24419;-46
2022/08/31 03:00:46;;;;;;;5.25;4.80;;;;;;;;;;5039621;28;24427;-46
2022/08/31 03:03:12;;;;;;;7.47;5.13;;;;;;;;;;5048969;28;24405;-47
2022/08/31 03:05:37;;;;;;;5.30;4.90;;;;;;;;;;5042343;28;24884;-46
2022/08/31 03:08:03;;;;;;;5.95;5.45;;;;;;;;;;5043415;28;24439;-46
2022/08/31 03:10:28;;;;;;;5.50;5.10;;;;;;;;;;5044904;28;24467;-46
2022/08/31 03:12:53;;;;;;;5.40;5.00;;;;;;;;;;5045577;28;24423;-46
2022/08/31 03:15:19;;;;;;;5.75;5.25;;;;;;;;;;5046694;28;24780;-46
2022/08/31 03:17:44;;;;;;;5.30;4.80;;;;;;;;;;5045478;28;24604;-46
2022/08/31 03:20:10;;;;;;;5.23;4.73;;;;;;;;;;5046754;28;24481;-46
2022/08/31 03:22:36;;;;;;;5.60;5.10;;;;;;;;;;5047652;28;25096;-46
2022/08/31 03:25:01;;;;;;;5.90;5.40;;;;;;;;;;5045600;28;24518;-46
2022/08/31 03:27:29;;;;;;;6.40;5.80;;;;;;;;;;5046302;28;24519;-46
2022/08/31 03:29:54;;;;;;;5.90;5.40;;;;;;;;;;5046436;28;24488;-46
2022/08/31 03:32:19;;;;;;;5.77;5.27;;;;;;;;;;5029011;28;24474;-46
2022/08/31 03:34:45;;;;;;;6.17;5.60;;;;;;;;;;5028276;28;25103;-47
2022/08/31 03:37:10;;;;;;;7.40;6.70;;;;;;;;;;5042281;28;24454;-46
2022/08/31 03:39:36;;;;;;;6.20;5.60;;;;;;;;;;5030213;28;24473;-46
2022/08/31 03:42:02;;;;;;;6.35;5.85;;;;;;;;;;5029659;28;25257;-46
2022/08/31 03:44:27;;;;;;;6.27;5.67;;;;;;;;;;5043057;28;24427;-46
2022/08/31 03:46:54;;;;;;;5.80;5.30;;;;;;;;;;5030333;28;24444;-47
2022/08/31 03:49:19;;;;;;;6.90;6.30;;;;;;;;;;5039938;28;24430;-45
2022/08/31 03:51:45;;;;;;;6.60;6.10;;;;;;;;;;5042150;28;24480;-46
2022/08/31 03:54:10;;;;;;;6.00;5.50;;;;;;;;;;5039596;28;24423;-47
2022/08/31 03:56:36;;;;;;;7.13;6.43;;;;;;;;;;5044151;28;24962;-47
2022/08/31 03:59:01;;;;;;;6.10;5.60;;;;;;;;;;5044108;28;24427;-46
2022/08/31 04:01:26;;;;;;;6.20;5.70;;;;;;;;;;5035949;28;24439;-46
2022/08/31 04:03:51;;;;;;;6.37;5.80;;;;;;;;;;5035715;28;24451;-47
2022/08/31 04:06:16;;;;;;;6.40;5.90;;;;;;;;;;5046031;28;24550;-47
2022/08/31 04:08:41;;;;;;;6.60;6.05;;;;;;;;;;5043002;28;24674;-47
2022/08/31 04:11:18;;;;;;;6.80;6.10;;;;;;;;;;5047667;28;24546;-48
2022/08/31 04:13:43;;;;;;;5.97;5.47;;;;;;;;;;5047844;28;24383;-47
2022/08/31 04:16:11;;;;;;;6.75;5.88;;;;;;;;;;5047399;28;24430;-47
2022/08/31 04:18:37;;;;;;;6.57;5.90;;;;;;;;;;5034509;28;24474;-47
2022/08/31 04:21:02;;;;;;;6.60;6.00;;;;;;;;;;5029211;28;24423;-47
2022/08/31 04:23:28;;;;;;;5.93;5.43;;;;;;;;;;5037377;28;24853;-46
2022/08/31 04:25:54;;;;;;;6.20;5.70;;;;;;;;;;5040941;28;24518;-47
2022/08/31 04:28:19;;;;;;;8.10;5.77;;;;;;;;;;5042421;28;24500;-47
2022/08/31 04:30:44;;;;;;;7.00;5.87;;;;;;;;;;5033039;28;24428;-47
2022/08/31 04:33:10;;;;;;;6.83;6.23;;;;;;;;;;5030883;28;25028;-46
2022/08/31 04:35:37;;;;;;;6.37;5.87;;;;;;;;;;5024039;28;24877;-47
2022/08/31 04:38:02;;;;;;;6.10;5.60;;;;;;;;;;5030631;28;25116;-47
2022/08/31 04:40:28;;;;;;;7.18;6.57;;;;;;;;;;5025605;28;25247;-46
2022/08/31 04:42:53;;;;;;;6.57;5.97;;;;;;;;;;5038640;28;24433;-46
2022/08/31 04:45:18;;;;;;;6.40;5.80;;;;;;;;;;5034192;28;24452;-46
2022/08/31 04:47:43;;;;;;;7.50;6.60;;;;;;;;;;5039365;28;24415;-46
2022/08/31 04:50:10;;;;;;;6.47;5.95;;;;;;;;;;5032849;28;24447;-47
2022/08/31 04:52:35;;;;;;;7.10;6.40;;;;;;;;;;5032662;28;24469;-46
2022/08/31 04:55:00;;;;;;;6.90;6.30;;;;;;;;;;5032786;28;24485;-46
2022/08/31 04:57:26;;;;;;;6.63;6.13;;;;;;;;;;5044133;28;24379;-46
2022/08/31 04:59:51;;;;;;;7.17;6.57;;;;;;;;;;5033789;28;24605;-46
2022/08/31 05:02:16;;;;;;;6.60;6.00;;;;;;;;;;5035159;28;24849;-46
2022/08/31 05:04:41;;;;;;;6.88;6.18;;;;;;;;;;5038701;28;24997;-46
2022/08/31 05:07:06;;;;;;;6.97;6.35;;;;;;;;;;5030906;28;24525;-46
2022/08/31 05:09:31;;;;;;;7.20;5.70;;;;;;;;;;5029643;28;24464;-45
2022/08/31 05:11:57;;;;;;;6.87;6.27;;;;;;;;;;5034800;28;24801;-45
2022/08/31 05:14:22;;;;;;;5.63;5.23;;;;;;;;;;5034478;28;24426;-45
2022/08/31 05:16:48;;;;;;;5.70;5.20;;;;;;;;;;5030438;28;24419;-45
2022/08/31 05:19:13;;;;;;;5.50;5.10;;;;;;;;;;5030640;28;24416;-46
2022/08/31 05:21:40;;;;;;;5.60;5.10;;;;;;;;;;5044952;28;24459;-45
2022/08/31 05:24:06;;;;;;;6.30;5.80;;;;;;;;;;5044789;28;24430;-47
2022/08/31 05:26:33;;;;;;;5.97;5.40;;;;;;;;;;5036724;28;25003;-46
2022/08/31 05:29:00;;;;;;;5.25;4.85;;;;;;;;;;5026567;28;24404;-46
2022/08/31 05:31:28;;;;;;;5.57;5.07;;;;;;;;;;5030295;28;24581;-46
2022/08/31 05:33:54;;;;;;;5.50;5.00;;;;;;;;;;5030463;28;24478;-46
2022/08/31 05:36:19;;;;;;;5.90;5.40;;;;;;;;;;5025701;28;24917;-48
2022/08/31 05:38:44;;;;;;;5.33;4.83;;;;;;;;;;5026160;28;24445;-47
2022/08/31 05:41:09;;;;;;;5.33;4.83;;;;;;;;;;5026147;28;24447;-47
2022/08/31 05:43:35;;;;;;;5.80;5.30;;;;;;;;;;5027596;28;24430;-47
2022/08/31 05:46:04;;;;;;;5.45;4.95;;;;;;;;;;5025975;28;24392;-47
2022/08/31 05:48:32;;;;;;;6.17;5.57;;;;;;;;;;5026498;28;24549;-47
2022/08/31 05:50:59;;;;;;;5.65;5.15;;;;;;;;;;5025898;28;24438;-47
2022/08/31 05:53:25;;;;;;;5.97;5.38;;;;;;;;;;5037969;28;24965;-47
2022/08/31 05:55:56;;;;;;;6.00;5.50;;;;;;;;;;5045882;28;24525;-47
2022/08/31 05:58:21;;;;;;;5.90;5.38;;;;;;;;;;5046319;28;24406;-47
2022/08/31 06:00:47;;;;;;;5.20;4.70;;;;;;;;;;5038361;28;24766;-47
2022/08/31 06:03:12;;;;;;;6.57;5.60;;;;;;;;;;5036867;28;24455;-48
2022/08/31 06:05:37;;;;;;;5.93;5.18;;;;;;;;;;5041051;28;24423;-48
2022/08/31 06:08:02;;;;;;;6.28;5.78;;;;;;;;;;5029988;28;24414;-45
2022/08/31 06:10:27;;;;;;;6.50;5.30;;;;;;;;;;5043319;28;24518;-46
2022/08/31 06:12:52;;;;;;;5.50;5.00;;;;;;;;;;5053062;28;24450;-46
2022/08/31 06:15:18;;;;;;;5.75;5.25;;;;;;;;;;5034331;28;24427;-46
2022/08/31 06:17:43;;;;;;;6.00;5.40;;;;;;;;;;5029968;28;24892;-46
2022/08/31 06:20:09;;;;;;;6.23;5.40;;;;;;;;;;5045310;28;24431;-46
2022/08/31 06:22:35;;;;;;;5.90;5.15;;;;;;;;;;5048240;28;24441;-46
2022/08/31 06:25:00;;;;;;;6.10;5.50;;;;;;;;;;5043954;28;24905;-46
2022/08/31 06:27:26;;;;;;;6.10;5.50;;;;;;;;;;5046416;28;24449;-46
2022/08/31 06:29:51;;;;;;;7.00;6.03;;;;;;;;;;5039304;28;24500;-46
2022/08/31 06:32:18;;;;;;;6.40;5.80;;;;;;;;;;5041406;28;24954;-46
2022/08/31 06:34:43;;;;;;;6.82;5.20;;;;;;;;;;5038376;28;24444;-46
2022/08/31 06:37:10;;;;;;;5.80;5.30;;;;;;;;;;5035916;28;25047;-46
2022/08/31 06:39:35;;;;;;;6.25;5.40;;;;;;;;;;5045959;28;25026;-46
2022/08/31 06:42:02;;;;;;;5.70;5.23;;;;;;;;;;5045478;28;24461;-46
2022/08/31 06:44:28;;;;;;;5.65;4.88;;;;;;;;;;5049643;28;24387;-45
2022/08/31 06:46:53;;;;;;;6.20;5.60;;;;;;;;;;5048515;28;24379;-46
2022/08/31 06:49:19;;;;;;;5.90;4.90;;;;;;;;;;5049138;28;24391;-45
2022/08/31 06:51:44;;;;;;;6.93;5.03;;;;;;;;;;5048100;28;24457;-45
2022/08/31 06:54:10;;;;;;;5.20;4.80;;;;;;;;;;5049100;28;24379;-47
2022/08/31 06:56:36;;;;;;;5.90;5.30;;;;;;;;;;5048974;28;24498;-45
2022/08/31 06:59:01;;;;;;;5.87;5.37;;;;;;;;;;5048930;28;24981;-46
2022/08/31 07:01:27;;;;;;;5.40;4.90;;;;;;;;;;5049025;28;24500;-46
2022/08/31 07:03:54;;;;;;;6.05;5.45;;;;;;;;;;5032303;28;24424;-46
2022/08/31 07:06:20;;;;;;;5.70;4.80;;;;;;;;;;5029008;28;24395;-46
2022/08/31 07:08:46;;;;;;;5.10;4.32;;;;;;;;;;5029201;28;25013;-47
2022/08/31 07:11:17;;;;;;;4.97;4.57;;;;;;;;;;5028772;28;24543;-47
2022/08/31 07:13:42;;;;;;;4.80;4.40;;;;;;;;;;5029823;28;24411;-46
2022/08/31 07:16:10;;;;;;;4.55;4.20;;;;;;;;;;5028621;28;25003;-47
2022/08/31 07:18:35;;;;;;;4.90;4.40;;;;;;;;;;5028618;28;24961;-46
2022/08/31 07:21:11;;;;;;;4.90;4.10;;;;;;;;;;5028531;28;24415;-47
2022/08/31 07:23:36;;;;;;;4.40;4.00;;;;;;;;;;5033838;28;24415;-51
2022/08/31 07:26:06;;;;;;;4.80;4.30;;;;;;;;;;5048214;28;24410;-47
2022/08/31 07:28:32;;;;;;;4.70;4.30;;;;;;;;;;5048785;28;25035;-46
2022/08/31 07:30:57;;;;;;;4.10;3.80;;;;;;;;;;5041679;28;24528;-46
2022/08/31 07:33:22;;;;;;;4.17;3.77;;;;;;;;;;5028164;28;24518;-45
2022/08/31 07:35:48;;;;;;;6.75;4.43;;;;;;;;;;5028420;28;24443;-46
2022/08/31 07:43:40;;;;;;;4.70;4.25;;;;;;;;;;5048104;28;24948;-46
2022/08/31 07:46:06;;;;;;;4.00;3.70;;;;;;;;;;5047708;28;24403;-47
2022/08/31 07:48:31;;;;;;;4.10;3.70;;;;;;;;;;5048639;28;24975;-46
2022/08/31 07:50:56;;;;;;;4.60;4.10;;;;;;;;;;5046622;28;24862;-47
2022/08/31 07:53:23;;;;;;;4.00;3.70;;;;;;;;;;5048154;28;24478;-49
2022/08/31 07:55:50;;;;;;;6.20;4.20;;;;;;;;;;5048084;28;24422;-48
2022/08/31 07:58:16;;;;;;;4.07;3.78;;;;;;;;;;5047878;28;24415;-47
2022/08/31 08:00:42;;;;;;;4.18;3.88;;;;;;;;;;5037189;28;24738;-48
2022/08/31 08:03:11;;;;;;;4.40;4.00;;;;;;;;;;5027798;28;24407;-48
2022/08/31 08:05:40;;;;;;;4.18;3.78;;;;;;;;;;5028059;28;24441;-48
2022/08/31 08:08:07;;;;;;;4.90;4.40;;;;;;;;;;5027932;28;24392;-47
2022/08/31 08:10:32;;;;;;;4.78;4.43;;;;;;;;;;5033126;28;24435;-47
2022/08/31 08:13:02;;;;;;;4.40;3.30;;;;;;;;;;5047552;28;24407;-47
2022/08/31 08:15:27;;;;;;;4.60;4.20;;;;;;;;;;5047603;28;24402;-47
2022/08/31 08:17:52;;;;;;;4.20;3.70;;;;;;;;;;5047818;28;24396;-47
2022/08/31 08:20:18;;;;;;;4.70;4.30;;;;;;;;;;5046827;28;24427;-48
2022/08/31 08:22:43;;;;;;;3.90;3.60;;;;;;;;;;5047578;28;24415;-47
2022/08/31 08:25:09;;;;;;;3.90;3.50;;;;;;;;;;5046937;28;24984;-47
2022/08/31 08:27:35;;;;;;;3.80;3.50;;;;;;;;;;5046769;28;24383;-47
2022/08/31 08:30:00;;;;;;;4.40;4.00;;;;;;;;;;5047246;28;25160;-46
2022/08/31 08:32:26;;;;;;;4.20;3.67;;;;;;;;;;5030537;28;24444;-47
2022/08/31 08:34:51;;;;;;;4.63;4.00;;;;;;;;;;5027392;28;24427;-47
2022/08/31 08:37:16;;;;;;;4.00;3.70;;;;;;;;;;5023754;28;24747;-46
2022/08/31 08:39:42;;;;;;;4.38;3.97;;;;;;;;;;5026118;28;24400;-46
2022/08/31 08:42:09;;;;;;;3.90;3.60;;;;;;;;;;5036437;28;24474;-46
2022/08/31 08:44:35;;;;;;;3.50;3.20;;;;;;;;;;5028137;28;24450;-46
2022/08/31 08:47:02;;;;;;;3.30;3.00;;;;;;;;;;5045869;28;24403;-46
2022/08/31 08:49:27;;;;;;;3.60;3.30;;;;;;;;;;5036127;28;24478;-46
2022/08/31 08:51:55;;;;;;;3.63;3.40;;;;;;;;;;5043355;28;24458;-46
2022/08/31 08:54:40;;;;;;;3.25;2.95;;;;;;;;;;5045395;28;24391;-47
2022/08/31 08:57:17;;;;;;;3.40;3.10;;;;;;;;;;5026499;28;24954;-47
2022/08/31 08:59:42;;;;;;;3.50;3.20;;;;;;;;;;5038035;28;24426;-47
2022/08/31 09:02:10;;;;;;;3.60;3.30;;;;;;;;;;5046437;28;24399;-47
2022/08/31 09:04:48;;;;;;;3.50;3.20;;;;;;;;;;5045101;28;24428;-47
2022/08/31 09:07:41;;;;;;;3.22;2.92;;;;;;;;;;5043047;28;24431;-46
2022/08/31 09:10:29;;;;;;;3.17;2.97;;;;;;;;;;5039009;28;25258;-46
2022/08/31 09:13:08;;;;;;;3.50;3.30;;;;;;;;;;5027384;28;24424;-47
2022/08/31 09:15:52;;;;;;;3.58;3.28;;;;;;;;;;5024657;28;24427;-48
2022/08/31 09:18:26;;;;;;;4.15;3.75;;;;;;;;;;5025747;28;24416;-47
2022/08/31 09:21:05;;;;;;;2.88;2.67;;;;;;;;;;5038179;28;24574;-46
2022/08/31 09:23:34;;;;;;;3.47;3.17;;;;;;;;;;5046196;28;24494;-46
2022/08/31 09:26:03;;;;;;;3.10;2.90;;;;;;;;;;5026602;28;25039;-46
2022/08/31 09:28:35;;;;;;;3.10;2.80;;;;;;;;;;5026647;28;25048;-47
2022/08/31 09:31:01;;;;;;;3.87;3.10;;;;;;;;;;5040481;28;24668;-46
2022/08/31 09:33:33;;;;;;;3.33;3.13;;;;;;;;;;5046073;28;24936;-46
2022/08/31 09:36:13;;;;;;;3.75;3.45;;;;;;;;;;5030206;28;24416;-46
2022/08/31 09:38:39;;;;;;;4.10;3.80;;;;;;;;;;5025943;28;24451;-46
2022/08/31 09:41:19;;;;;;;4.20;3.08;;;;;;;;;;5041736;28;24437;-46
2022/08/31 09:43:46;;;;;;;4.03;3.63;;;;;;;;;;5044950;28;24484;-46
2022/08/31 09:46:21;;;;;;;3.40;3.00;;;;;;;;;;5033966;28;24511;-47
2022/08/31 09:49:01;;;;;;;3.47;3.17;;;;;;;;;;5026583;28;24438;-46
2022/08/31 09:51:32;;;;;;;3.40;3.20;;;;;;;;;;5045938;28;24433;-46
2022/08/31 09:56:51;;;;;;;3.85;3.53;;;;;;;;;;5031288;28;24426;-47
2022/08/31 09:59:27;;;;;;;4.60;4.20;;;;;;;;;;5036849;28;24546;-46
2022/08/31 10:01:52;;;;;;;3.53;3.33;;;;;;;;;;5026078;28;25007;-46
2022/08/31 10:04:25;;;;;;;3.60;3.40;;;;;;;;;;5032325;28;24454;-46
2022/08/31 10:06:57;;;;;;;4.30;3.50;;;;;;;;;;5043438;28;24583;-47
2022/08/31 10:09:45;;;;;;;4.00;3.70;;;;;;;;;;5042543;28;24458;-46
2022/08/31 10:12:32;;;;;;;4.97;4.47;;;;;;;;;;5045857;28;24395;-47
2022/08/31 10:15:01;;;;;;;5.03;4.05;;;;;;;;;;5026317;28;25048;-46
2022/08/31 10:17:39;;;;;;;4.50;4.20;;;;;;;;;;5025608;28;24435;-46
2022/08/31 10:20:08;;;;;;;4.40;4.00;;;;;;;;;;5037939;28;24465;-46
2022/08/31 10:22:41;;;;;;;5.10;4.25;;;;;;;;;;5045942;28;24407;-46
2022/08/31 10:25:10;;;;;;;4.35;3.95;;;;;;;;;;5040684;28;24434;-47
2022/08/31 10:27:47;;;;;;;3.97;3.60;;;;;;;;;;5043287;28;24402;-46
2022/08/31 10:30:31;;;;;;;3.90;3.60;;;;;;;;;;5038239;28;24485;-46
2022/08/31 10:33:06;;;;;;;3.60;3.30;;;;;;;;;;5027152;28;24384;-47
2022/08/31 10:35:43;;;;;;;3.85;3.53;;;;;;;;;;5041839;28;24431;-46
2022/08/31 10:38:25;;;;;;;3.67;3.35;;;;;;;;;;5044319;28;24837;-45
2022/08/31 10:41:02;;;;;;;3.38;3.08;;;;;;;;;;5038295;28;24496;-48
2022/08/31 10:43:30;;;;;;;3.50;3.30;;;;;;;;;;5033895;28;24423;-47
2022/08/31 10:45:55;;;;;;;3.50;3.20;;;;;;;;;;5045010;28;24426;-47
2022/08/31 10:48:23;;;;;;;3.70;2.97;;;;;;;;;;5042111;28;24435;-47
2022/08/31 10:50:56;;;;;;;2.85;2.60;;;;;;;;;;5046013;28;24941;-47
2022/08/31 10:53:33;;;;;;;2.80;2.50;;;;;;;;;;5037227;28;24438;-47
2022/08/31 10:56:13;;;;;;;2.80;2.60;;;;;;;;;;5047294;28;24469;-47
2022/08/31 10:58:38;;;;;;;3.15;2.85;;;;;;;;;;5046230;28;24543;-46
2022/08/31 11:01:19;;;;;;;3.40;2.60;;;;;;;;;;5045767;28;24491;-47
2022/08/31 11:03:53;;;;;;;3.80;2.80;;;;;;;;;;5028660;28;24400;-47
2022/08/31 11:06:36;;;;;;;2.88;2.60;;;;;;;;;;5028821;28;24414;-47
2022/08/31 11:09:01;;;;;;;3.70;3.15;;;;;;;;;;5028884;28;24798;-47
2022/08/31 11:11:36;;;;;;;3.20;3.00;;;;;;;;;;5028875;28;24962;-46
2022/08/31 11:14:19;;;;;;;3.78;3.47;;;;;;;;;;5048335;28;24548;-47
2022/08/31 11:16:56;;;;;;;4.80;2.90;;;;;;;;;;5048507;28;24926;-46
2022/08/31 11:19:37;;;;;;;2.72;2.53;;;;;;;;;;5037715;28;24428;-47
2022/08/31 11:22:15;;;;;;;3.42;2.90;;;;;;;;;;5043538;28;24446;-46
2022/08/31 11:24:59;;;;;;;3.20;2.53;;;;;;;;;;5048479;28;24400;-48
2022/08/31 11:27:26;;;;;;;2.88;2.58;;;;;;;;;;5048445;28;24403;-47
2022/08/31 11:29:57;;;;;;;3.40;2.40;;;;;;;;;;5031493;28;24408;-47
2022/08/31 11:32:34;;;;;;;2.40;2.20;;;;;;;;;;5028432;28;24400;-47
2022/08/31 11:35:07;;;;;;;3.88;2.30;;;;;;;;;;5028483;28;24434;-47
2022/08/31 11:37:54;;;;;;;3.05;2.30;;;;;;;;;;5028834;28;24969;-47
2022/08/31 11:40:40;;;;;;;2.47;2.27;;;;;;;;;;5028100;28;24424;-47
2022/08/31 11:43:07;;;;;;;3.55;3.25;;;;;;;;;;5028436;28;24396;-47
2022/08/31 11:45:33;;;;;;;2.60;2.40;;;;;;;;;;5028456;28;24553;-48
2022/08/31 11:47:59;;;;;;;3.10;2.80;;;;;;;;;;5036595;28;24429;-47
2022/08/31 11:50:24;;;;;;;2.80;2.28;;;;;;;;;;5048099;28;24414;-47
2022/08/31 11:52:52;;;;;;;2.37;2.20;;;;;;;;;;5048296;28;24403;-47
2022/08/31 11:55:21;;;;;;;2.50;2.30;;;;;;;;;;5046749;28;24419;-47
2022/08/31 11:58:05;;;;;;;2.20;2.05;;;;;;;;;;5047648;28;24479;-47
2022/08/31 12:00:40;;;;;;;2.22;2.10;;;;;;;;;;5044387;28;24428;-46
2022/08/31 12:03:08;;;;;;;2.50;2.30;;;;;;;;;;5028055;28;24388;-47
2022/08/31 12:05:41;;;;;;;2.17;1.98;;;;;;;;;;5031549;28;24527;-47
2022/08/31 12:08:10;;;;;;;1.80;1.70;;;;;;;;;;5047634;28;24406;-48
2022/08/31 12:10:41;;;;;;;2.80;2.20;;;;;;;;;;5047697;28;24703;-47
2022/08/31 12:13:17;;;;;;;1.97;1.87;;;;;;;;;;5047889;28;25019;-47
2022/08/31 12:15:57;;;;;;;2.10;1.90;;;;;;;;;;5038127;28;24833;-47
2022/08/31 12:18:41;;;;;;;2.40;2.20;;;;;;;;;;5027726;28;24485;-47
2022/08/31 12:24:18;;;;;;;2.13;1.92;;;;;;;;;;5027900;28;24379;-46
2022/08/31 12:26:46;;;;;;;2.40;2.17;;;;;;;;;;5040542;28;25260;-46
2022/08/31 12:29:11;;;;;;;2.10;1.90;;;;;;;;;;5047520;28;24408;-45
2022/08/31 12:31:38;;;;;;;1.80;1.70;;;;;;;;;;5027064;28;24447;-46
2022/08/31 12:34:10;;;;;;;1.88;1.77;;;;;;;;;;5026926;28;25017;-45
2022/08/31 12:36:35;;;;;;;2.25;1.83;;;;;;;;;;5035583;28;24508;-45
2022/08/31 12:39:12;;;;;;;2.30;2.10;;;;;;;;;;5047331;28;24454;-45
2022/08/31 12:41:39;;;;;;;2.70;2.50;;;;;;;;;;5047051;28;25047;-45
2022/08/31 12:44:05;;;;;;;2.90;2.28;;;;;;;;;;5047203;28;24399;-46
2022/08/31 12:46:47;;;;;;;3.90;2.20;;;;;;;;;;5045615;28;24433;-45
2022/08/31 12:49:31;;;;;;;2.90;2.10;;;;;;;;;;5047233;28;24465;-46
2022/08/31 12:52:13;;;;;;;3.15;2.40;;;;;;;;;;5046951;28;24422;-46
2022/08/31 12:54:48;;;;;;;2.60;2.20;;;;;;;;;;5047031;28;24400;-46
2022/08/31 12:57:31;;;;;;;1.80;1.70;;;;;;;;;;5043369;28;24782;-46
2022/08/31 12:59:59;;;;;;;1.80;1.70;;;;;;;;;;5043717;28;25328;-47
2022/08/31 13:02:25;;;;;;;3.90;1.90;;;;;;;;;;5045557;28;24423;-46
2022/08/31 13:04:50;;;;;;;2.60;2.40;;;;;;;;;;5033735;28;24521;-46
2022/08/31 13:07:41;;;;;;;2.10;2.00;;;;;;;;;;5031063;28;24418;-46
2022/08/31 13:10:12;;;;;;;2.00;1.90;;;;;;;;;;5043184;28;24546;-46
2022/08/31 13:12:37;;;;;;;1.90;1.80;;;;;;;;;;5043028;28;24477;-46
2022/08/31 13:15:03;;;;;;;2.20;2.00;;;;;;;;;;5032028;28;24408;-46
2022/08/31 13:17:30;;;;;;;2.50;2.00;;;;;;;;;;5034909;28;24416;-46
2022/08/31 13:19:57;;;;;;;1.60;1.50;;;;;;;;;;5043725;28;24433;-46
2022/08/31 13:22:27;;;;;;;1.70;1.60;;;;;;;;;;5043993;28;24471;-47
2022/08/31 13:24:52;;;;;;;1.80;1.70;;;;;;;;;;5043594;28;24510;-47
2022/08/31 13:27:20;;;;;;;2.10;1.90;;;;;;;;;;5045130;28;24419;-47
2022/08/31 13:29:46;;;;;;;1.80;1.70;;;;;;;;;;5041494;28;24541;-47
2022/08/31 13:32:32;;;;;;;1.70;1.60;;;;;;;;;;5045075;28;24425;-47
2022/08/31 13:35:01;;;;;;;1.80;1.70;;;;;;;;;;5033802;28;24466;-47
2022/08/31 13:37:30;;;;;;;2.10;1.90;;;;;;;;;;5038081;28;24473;-48
2022/08/31 13:39:56;;;;;;;1.70;1.60;;;;;;;;;;5044397;28;24392;-47
2022/08/31 13:42:27;;;;;;;1.80;1.70;;;;;;;;;;5043394;28;24581;-47
2022/08/31 13:44:57;;;;;;;2.90;2.10;;;;;;;;;;5039917;28;24412;-46
2022/08/31 13:47:22;;;;;;;2.20;2.00;;;;;;;;;;5039679;28;24419;-47
2022/08/31 13:49:52;;;;;;;2.10;1.90;;;;;;;;;;5044548;28;24452;-47
2022/08/31 13:52:22;;;;;;;2.30;1.70;;;;;;;;;;5044526;28;25037;-46
2022/08/31 13:55:03;;;;;;;2.70;1.90;;;;;;;;;;5043539;28;24554;-48
2022/08/31 13:57:29;;;;;;;1.77;1.67;;;;;;;;;;5033087;28;24442;-46
2022/08/31 13:59:55;;;;;;;1.90;1.80;;;;;;;;;;5025651;28;24400;-48
2022/08/31 14:02:21;;;;;;;2.70;2.25;;;;;;;;;;5023616;28;24483;-46
2022/08/31 14:04:49;;;;;;;3.00;2.50;;;;;;;;;;5038355;28;25393;-46
2022/08/31 14:07:20;;;;;;;2.90;2.70;;;;;;;;;;5026230;28;24488;-47
2022/08/31 14:09:49;;;;;;;2.42;2.20;;;;;;;;;;5035912;28;25072;-45
2022/08/31 14:12:20;;;;;;;2.40;2.20;;;;;;;;;;5042557;28;24585;-46
2022/08/31 14:14:45;;;;;;;5.25;2.53;;;;;;;;;;5043146;28;24427;-47
2022/08/31 14:17:15;;;;;;;2.65;2.30;;;;;;;;;;5033583;28;24768;-46
2022/08/31 14:19:41;;;;;;;2.95;2.40;;;;;;;;;;5031553;28;24460;-46
2022/08/31 14:22:26;;;;;;;2.40;2.20;;;;;;;;;;5035471;28;24406;-46
2022/08/31 14:24:54;;;;;;;2.53;2.33;;;;;;;;;;5038815;28;24934;-47
2022/08/31 14:27:19;;;;;;;2.20;2.10;;;;;;;;;;5041859;28;24426;-46
2022/08/31 14:29:44;;;;;;;1.98;1.88;;;;;;;;;;5036459;28;24431;-46
2022/08/31 14:32:09;;;;;;;2.70;2.20;;;;;;;;;;5040390;28;25095;-47
2022/08/31 14:34:35;;;;;;;2.43;2.10;;;;;;;;;;5035520;28;24527;-46
2022/08/31 14:37:05;;;;;;;2.90;2.20;;;;;;;;;;5036049;28;24415;-46
2022/08/31 14:39:32;;;;;;;2.65;2.42;;;;;;;;;;5034769;28;24408;-46
2022/08/31 14:41:59;;;;;;;2.08;1.88;;;;;;;;;;5042669;28;24447;-47
2022/08/31 14:44:26;;;;;;;2.23;2.10;;;;;;;;;;5036774;28;25006;-47
2022/08/31 14:46:51;;;;;;;5.40;2.20;;;;;;;;;;5032833;28;24439;-47
2022/08/31 14:49:17;;;;;;;2.00;1.90;;;;;;;;;;5032195;28;24736;-47
2022/08/31 14:51:42;;;;;;;2.43;2.10;;;;;;;;;;5032523;28;24913;-47
2022/08/31 14:54:08;;;;;;;2.50;2.00;;;;;;;;;;5033717;28;25043;-47
2022/08/31 14:56:36;;;;;;;2.37;2.17;;;;;;;;;;5034435;28;24830;-47
2022/08/31 14:59:03;;;;;;;2.70;2.50;;;;;;;;;;5037855;28;25014;-46
2022/08/31 15:01:29;;;;;;;3.10;2.40;;;;;;;;;;5033281;28;24418;-45
2022/08/31 15:03:54;;;;;;;2.45;2.30;;;;;;;;;;5033448;28;24541;-46
2022/08/31 15:06:19;;;;;;;3.30;2.27;;;;;;;;;;5032504;28;25028;-46